sensor_id;sensor_type;location;lat;lon;timestamp;temperature;humidity
20915;DHT22;10617;52.032;5.298;2022-10-31T00:00:12;13.10;99.90
20915;DHT22;10617;52.032;5.298;2022-10-31T00:04:14;13.00;99.90
20915;DHT22;10617;52.032;5.298;2022-10-31T00:08:16;13.00;99.90
20915;DHT22;10617;52.032;5.298;2022-10-31T00:12:18;13.00;99.90
20915;DHT22;10617;52.032;5.298;2022-10-31T00:16:20;13.00;99.90
20915;DHT22;10617;52.032;5.298;2022-10-31T00:20:22;13.00;99.90
20915;DHT22;10617;52.032;5.298;2022-10-31T00:24:24;13.00;99.90
20915;DHT22;10617;52.032;5.298;2022-10-31T00:28:25;13.00;99.90
20915;DHT22;10617;52.032;5.298;2022-10-31T00:32:28;13.00;99.90
20915;DHT22;10617;52.032;5.298;2022-10-31T00:36:30;13.00;99.90
20915;DHT22;10617;52.032;5.298;2022-10-31T00:40:32;12.90;99.90
20915;DHT22;10617;52.032;5.298;2022-10-31T00:44:33;12.90;99.90
20915;DHT22;10617;52.032;5.298;2022-10-31T00:48:35;12.90;99.90
20915;DHT22;10617;52.032;5.298;2022-10-31T00:52:37;12.90;99.90
20915;DHT22;10617;52.032;5.298;2022-10-31T00:56:38;12.80;99.90
20915;DHT22;10617;52.032;5.298;2022-10-31T01:00:40;12.80;99.90
20915;DHT22;10617;52.032;5.298;2022-10-31T01:04:41;12.80;99.90
20915;DHT22;10617;52.032;5.298;2022-10-31T01:08:43;12.70;99.90
20915;DHT22;10617;52.032;5.298;2022-10-31T01:12:46;12.70;99.90
20915;DHT22;10617;52.032;5.298;2022-10-31T01:16:48;12.60;99.90
20915;DHT22;10617;52.032;5.298;2022-10-31T01:20:56;12.60;99.90
20915;DHT22;10617;52.032;5.298;2022-10-31T01:24:58;12.60;99.90
20915;DHT22;10617;52.032;5.298;2022-10-31T01:29:01;12.50;99.90
20915;DHT22;10617;52.032;5.298;2022-10-31T01:38:12;12.40;99.90
20915;DHT22;10617;52.032;5.298;2022-10-31T01:42:18;12.40;99.90
20915;DHT22;10617;52.032;5.298;2022-10-31T01:46:30;12.30;99.90
20915;DHT22;10617;52.032;5.298;2022-10-31T01:50:35;12.20;99.90
20915;DHT22;10617;52.032;5.298;2022-10-31T01:54:42;12.20;99.90
20915;DHT22;10617;52.032;5.298;2022-10-31T01:58:46;12.10;99.90
20915;DHT22;10617;52.032;5.298;2022-10-31T02:02:48;12.10;99.90
20915;DHT22;10617;52.032;5.298;2022-10-31T02:06:58;12.00;99.90
20915;DHT22;10617;52.032;5.298;2022-10-31T02:11:00;12.00;99.90
20915;DHT22;10617;52.032;5.298;2022-10-31T02:15:03;11.90;99.90
20915;DHT22;10617;52.032;5.298;2022-10-31T02:19:04;11.90;99.90
20915;DHT22;10617;52.032;5.298;2022-10-31T02:23:20;11.80;99.90
20915;DHT22;10617;52.032;5.298;2022-10-31T02:54:17;11.30;99.90
20915;DHT22;10617;52.032;5.298;2022-10-31T02:58:20;11.30;99.90
20915;DHT22;10617;52.032;5.298;2022-10-31T03:06:30;11.20;99.90
20915;DHT22;10617;52.032;5.298;2022-10-31T03:14:42;11.20;99.90
20915;DHT22;10617;52.032;5.298;2022-10-31T03:18:52;11.20;99.90
20915;DHT22;10617;52.032;5.298;2022-10-31T03:22:55;11.10;99.90
20915;DHT22;10617;52.032;5.298;2022-10-31T03:26:57;11.10;99.90
20915;DHT22;10617;52.032;5.298;2022-10-31T03:31:00;11.10;99.90
20915;DHT22;10617;52.032;5.298;2022-10-31T03:35:05;11.00;99.90
20915;DHT22;10617;52.032;5.298;2022-10-31T03:39:10;11.00;99.90
20915;DHT22;10617;52.032;5.298;2022-10-31T03:43:15;11.00;99.90
20915;DHT22;10617;52.032;5.298;2022-10-31T03:47:17;11.00;99.90
20915;DHT22;10617;52.032;5.298;2022-10-31T03:51:24;10.90;99.90
20915;DHT22;10617;52.032;5.298;2022-10-31T03:59:30;10.90;99.90
20915;DHT22;10617;52.032;5.298;2022-10-31T04:03:33;10.80;99.90
20915;DHT22;10617;52.032;5.298;2022-10-31T04:07:37;10.80;99.90
20915;DHT22;10617;52.032;5.298;2022-10-31T04:11:42;10.80;99.90
20915;DHT22;10617;52.032;5.298;2022-10-31T04:15:46;10.70;99.90
20915;DHT22;10617;52.032;5.298;2022-10-31T04:19:49;10.80;99.90
20915;DHT22;10617;52.032;5.298;2022-10-31T04:23:50;10.80;99.90
20915;DHT22;10617;52.032;5.298;2022-10-31T04:27:52;10.80;99.90
20915;DHT22;10617;52.032;5.298;2022-10-31T04:31:53;10.80;99.90
20915;DHT22;10617;52.032;5.298;2022-10-31T04:35:55;10.70;99.90
20915;DHT22;10617;52.032;5.298;2022-10-31T04:39:56;10.70;99.90
20915;DHT22;10617;52.032;5.298;2022-10-31T04:43:58;10.70;99.90
20915;DHT22;10617;52.032;5.298;2022-10-31T04:47:59;10.60;99.90
20915;DHT22;10617;52.032;5.298;2022-10-31T04:52:01;10.60;99.90
20915;DHT22;10617;52.032;5.298;2022-10-31T04:56:03;10.70;99.90
20915;DHT22;10617;52.032;5.298;2022-10-31T05:00:05;10.70;99.90
20915;DHT22;10617;52.032;5.298;2022-10-31T05:04:07;10.70;99.90
20915;DHT22;10617;52.032;5.298;2022-10-31T05:08:08;10.80;99.90
20915;DHT22;10617;52.032;5.298;2022-10-31T05:12:10;10.90;99.90
20915;DHT22;10617;52.032;5.298;2022-10-31T05:16:11;10.90;99.90
20915;DHT22;10617;52.032;5.298;2022-10-31T05:20:14;11.00;99.90
20915;DHT22;10617;52.032;5.298;2022-10-31T05:24:16;11.10;99.90
20915;DHT22;10617;52.032;5.298;2022-10-31T05:28:17;11.20;99.90
20915;DHT22;10617;52.032;5.298;2022-10-31T05:32:19;11.20;99.90
20915;DHT22;10617;52.032;5.298;2022-10-31T05:36:20;11.20;99.90
20915;DHT22;10617;52.032;5.298;2022-10-31T05:40:22;11.30;99.90
20915;DHT22;10617;52.032;5.298;2022-10-31T05:44:24;11.30;99.90
20915;DHT22;10617;52.032;5.298;2022-10-31T05:48:26;11.30;99.90
20915;DHT22;10617;52.032;5.298;2022-10-31T05:52:27;11.30;99.90
20915;DHT22;10617;52.032;5.298;2022-10-31T05:56:29;11.30;99.90
20915;DHT22;10617;52.032;5.298;2022-10-31T06:00:30;11.30;99.90
20915;DHT22;10617;52.032;5.298;2022-10-31T06:04:33;11.30;99.90
20915;DHT22;10617;52.032;5.298;2022-10-31T06:08:35;11.30;99.90
20915;DHT22;10617;52.032;5.298;2022-10-31T06:12:36;11.30;99.90
20915;DHT22;10617;52.032;5.298;2022-10-31T06:16:39;11.30;99.90
20915;DHT22;10617;52.032;5.298;2022-10-31T06:20:40;11.30;99.90
20915;DHT22;10617;52.032;5.298;2022-10-31T06:24:42;11.30;99.90
20915;DHT22;10617;52.032;5.298;2022-10-31T06:28:43;11.30;99.90
20915;DHT22;10617;52.032;5.298;2022-10-31T06:32:45;11.30;99.90
20915;DHT22;10617;52.032;5.298;2022-10-31T06:36:47;11.30;99.90
20915;DHT22;10617;52.032;5.298;2022-10-31T06:40:48;11.20;99.90
20915;DHT22;10617;52.032;5.298;2022-10-31T06:44:50;11.30;99.90
20915;DHT22;10617;52.032;5.298;2022-10-31T06:48:51;11.30;99.90
20915;DHT22;10617;52.032;5.298;2022-10-31T06:52:57;11.30;99.90
20915;DHT22;10617;52.032;5.298;2022-10-31T06:56:58;11.30;99.90
20915;DHT22;10617;52.032;5.298;2022-10-31T07:01:00;11.30;99.90
20915;DHT22;10617;52.032;5.298;2022-10-31T07:05:02;11.30;99.90
20915;DHT22;10617;52.032;5.298;2022-10-31T07:09:04;11.30;99.90
20915;DHT22;10617;52.032;5.298;2022-10-31T07:13:06;11.40;99.90
20915;DHT22;10617;52.032;5.298;2022-10-31T07:17:09;11.40;99.90
20915;DHT22;10617;52.032;5.298;2022-10-31T07:21:11;11.40;99.90
20915;DHT22;10617;52.032;5.298;2022-10-31T07:25:13;11.40;99.90
20915;DHT22;10617;52.032;5.298;2022-10-31T07:29:14;11.50;99.90
20915;DHT22;10617;52.032;5.298;2022-10-31T07:33:16;11.50;99.90
20915;DHT22;10617;52.032;5.298;2022-10-31T07:37:17;11.50;99.90
20915;DHT22;10617;52.032;5.298;2022-10-31T07:41:19;11.60;99.90
20915;DHT22;10617;52.032;5.298;2022-10-31T07:45:22;11.60;99.90
20915;DHT22;10617;52.032;5.298;2022-10-31T07:49:23;11.70;99.90
20915;DHT22;10617;52.032;5.298;2022-10-31T07:53:26;11.70;99.90
20915;DHT22;10617;52.032;5.298;2022-10-31T07:57:28;11.70;99.90
20915;DHT22;10617;52.032;5.298;2022-10-31T08:01:35;11.80;99.90
20915;DHT22;10617;52.032;5.298;2022-10-31T08:05:36;11.80;99.90
20915;DHT22;10617;52.032;5.298;2022-10-31T08:09:38;11.90;99.90
20915;DHT22;10617;52.032;5.298;2022-10-31T08:13:40;11.90;99.90
20915;DHT22;10617;52.032;5.298;2022-10-31T08:17:41;12.00;99.90
20915;DHT22;10617;52.032;5.298;2022-10-31T08:21:43;12.10;99.90
20915;DHT22;10617;52.032;5.298;2022-10-31T08:25:44;12.20;99.90
20915;DHT22;10617;52.032;5.298;2022-10-31T08:29:48;12.30;99.90
20915;DHT22;10617;52.032;5.298;2022-10-31T08:33:49;12.40;99.90
20915;DHT22;10617;52.032;5.298;2022-10-31T08:37:53;12.50;99.90
20915;DHT22;10617;52.032;5.298;2022-10-31T08:41:56;12.50;99.90
20915;DHT22;10617;52.032;5.298;2022-10-31T08:45:57;12.50;99.90
20915;DHT22;10617;52.032;5.298;2022-10-31T08:49:59;12.50;99.90
20915;DHT22;10617;52.032;5.298;2022-10-31T08:54:00;12.60;99.90
20915;DHT22;10617;52.032;5.298;2022-10-31T08:58:03;12.70;99.90
20915;DHT22;10617;52.032;5.298;2022-10-31T09:02:05;12.70;99.90
20915;DHT22;10617;52.032;5.298;2022-10-31T09:06:06;12.90;99.90
20915;DHT22;10617;52.032;5.298;2022-10-31T09:10:10;13.00;99.90
20915;DHT22;10617;52.032;5.298;2022-10-31T09:14:11;13.20;99.90
20915;DHT22;10617;52.032;5.298;2022-10-31T09:18:14;13.40;99.90
20915;DHT22;10617;52.032;5.298;2022-10-31T09:22:15;13.50;99.90
20915;DHT22;10617;52.032;5.298;2022-10-31T09:26:17;13.60;99.90
20915;DHT22;10617;52.032;5.298;2022-10-31T09:30:19;13.70;99.90
20915;DHT22;10617;52.032;5.298;2022-10-31T09:34:20;13.80;99.90
20915;DHT22;10617;52.032;5.298;2022-10-31T09:38:22;13.80;99.90
20915;DHT22;10617;52.032;5.298;2022-10-31T09:46:32;13.90;99.90
20915;DHT22;10617;52.032;5.298;2022-10-31T09:50:41;14.00;99.90
20915;DHT22;10617;52.032;5.298;2022-10-31T09:54:46;14.10;99.90
20915;DHT22;10617;52.032;5.298;2022-10-31T09:58:55;14.30;99.90
20915;DHT22;10617;52.032;5.298;2022-10-31T10:03:02;14.50;99.90
20915;DHT22;10617;52.032;5.298;2022-10-31T10:07:11;14.70;99.90
20915;DHT22;10617;52.032;5.298;2022-10-31T10:11:17;14.90;99.90
20915;DHT22;10617;52.032;5.298;2022-10-31T10:15:41;15.20;99.90
20915;DHT22;10617;52.032;5.298;2022-10-31T10:28:26;15.30;99.90
20915;DHT22;10617;52.032;5.298;2022-10-31T10:32:32;15.30;99.90
20915;DHT22;10617;52.032;5.298;2022-10-31T10:36:41;15.30;99.90
20915;DHT22;10617;52.032;5.298;2022-10-31T10:40:44;15.30;99.90
20915;DHT22;10617;52.032;5.298;2022-10-31T10:44:47;15.30;99.90
20915;DHT22;10617;52.032;5.298;2022-10-31T10:49:17;15.40;99.90
20915;DHT22;10617;52.032;5.298;2022-10-31T10:53:25;15.50;99.90
20915;DHT22;10617;52.032;5.298;2022-10-31T11:01:41;15.70;99.90
20915;DHT22;10617;52.032;5.298;2022-10-31T11:05:45;15.80;99.90
20915;DHT22;10617;52.032;5.298;2022-10-31T11:09:48;15.80;99.90
20915;DHT22;10617;52.032;5.298;2022-10-31T11:13:50;15.80;99.90
20915;DHT22;10617;52.032;5.298;2022-10-31T11:17:54;15.90;99.90
20915;DHT22;10617;52.032;5.298;2022-10-31T11:22:05;15.80;99.90
20915;DHT22;10617;52.032;5.298;2022-10-31T11:26:20;15.80;99.90
20915;DHT22;10617;52.032;5.298;2022-10-31T11:30:21;15.80;99.90
20915;DHT22;10617;52.032;5.298;2022-10-31T11:34:44;15.80;99.90
20915;DHT22;10617;52.032;5.298;2022-10-31T11:38:46;15.80;99.90
20915;DHT22;10617;52.032;5.298;2022-10-31T11:42:48;15.80;99.90
20915;DHT22;10617;52.032;5.298;2022-10-31T11:47:13;15.90;99.90
20915;DHT22;10617;52.032;5.298;2022-10-31T11:51:12;15.90;99.90
20915;DHT22;10617;52.032;5.298;2022-10-31T11:55:15;15.90;99.90
20915;DHT22;10617;52.032;5.298;2022-10-31T11:59:20;15.90;99.90
20915;DHT22;10617;52.032;5.298;2022-10-31T12:07:24;15.90;99.90
20915;DHT22;10617;52.032;5.298;2022-10-31T12:15:31;15.80;99.90
20915;DHT22;10617;52.032;5.298;2022-10-31T12:19:36;15.80;99.90
20915;DHT22;10617;52.032;5.298;2022-10-31T12:32:11;16.20;99.90
20915;DHT22;10617;52.032;5.298;2022-10-31T12:53:08;16.70;99.90
20915;DHT22;10617;52.032;5.298;2022-10-31T13:01:21;16.80;99.90
20915;DHT22;10617;52.032;5.298;2022-10-31T13:05:36;16.70;99.90
20915;DHT22;10617;52.032;5.298;2022-10-31T13:09:41;16.70;99.90
20915;DHT22;10617;52.032;5.298;2022-10-31T13:14:02;16.70;99.90
20915;DHT22;10617;52.032;5.298;2022-10-31T13:18:06;16.70;99.90
20915;DHT22;10617;52.032;5.298;2022-10-31T13:22:25;16.70;99.90
20915;DHT22;10617;52.032;5.298;2022-10-31T13:26:38;16.70;99.90
20915;DHT22;10617;52.032;5.298;2022-10-31T13:30:42;16.90;99.90
20915;DHT22;10617;52.032;5.298;2022-10-31T13:34:47;16.90;99.90
20915;DHT22;10617;52.032;5.298;2022-10-31T13:52:24;17.20;99.90
20915;DHT22;10617;52.032;5.298;2022-10-31T13:56:29;17.10;99.90
20915;DHT22;10617;52.032;5.298;2022-10-31T14:00:31;17.10;99.90
20915;DHT22;10617;52.032;5.298;2022-10-31T14:04:38;17.10;99.90
20915;DHT22;10617;52.032;5.298;2022-10-31T14:08:41;17.10;99.90
20915;DHT22;10617;52.032;5.298;2022-10-31T14:12:48;17.00;99.90
20915;DHT22;10617;52.032;5.298;2022-10-31T14:16:54;17.00;99.90
20915;DHT22;10617;52.032;5.298;2022-10-31T14:36:07;16.90;99.90
20915;DHT22;10617;52.032;5.298;2022-10-31T14:44:22;16.80;99.90
20915;DHT22;10617;52.032;5.298;2022-10-31T14:48:42;16.80;99.90
20915;DHT22;10617;52.032;5.298;2022-10-31T14:52:46;16.80;99.90
20915;DHT22;10617;52.032;5.298;2022-10-31T14:56:49;16.80;99.90
20915;DHT22;10617;52.032;5.298;2022-10-31T15:00:56;16.80;99.90
20915;DHT22;10617;52.032;5.298;2022-10-31T15:04:58;16.80;99.90
20915;DHT22;10617;52.032;5.298;2022-10-31T15:09:00;16.80;99.90
20915;DHT22;10617;52.032;5.298;2022-10-31T15:13:17;16.70;99.90
20915;DHT22;10617;52.032;5.298;2022-10-31T15:17:19;16.70;99.90
20915;DHT22;10617;52.032;5.298;2022-10-31T15:21:22;16.70;99.90
20915;DHT22;10617;52.032;5.298;2022-10-31T15:25:25;16.70;99.90
20915;DHT22;10617;52.032;5.298;2022-10-31T15:29:27;16.70;99.90
20915;DHT22;10617;52.032;5.298;2022-10-31T15:33:30;16.70;99.90
20915;DHT22;10617;52.032;5.298;2022-10-31T15:37:38;16.70;99.90
20915;DHT22;10617;52.032;5.298;2022-10-31T15:41:50;16.70;99.90
20915;DHT22;10617;52.032;5.298;2022-10-31T15:45:55;16.70;99.90
20915;DHT22;10617;52.032;5.298;2022-10-31T15:49:58;16.70;99.90
20915;DHT22;10617;52.032;5.298;2022-10-31T15:54:00;16.60;99.90
20915;DHT22;10617;52.032;5.298;2022-10-31T15:58:03;16.60;99.90
20915;DHT22;10617;52.032;5.298;2022-10-31T16:02:09;16.60;99.90
20915;DHT22;10617;52.032;5.298;2022-10-31T16:06:19;16.60;99.90
20915;DHT22;10617;52.032;5.298;2022-10-31T16:10:25;16.50;99.90
20915;DHT22;10617;52.032;5.298;2022-10-31T16:14:27;16.50;99.90
20915;DHT22;10617;52.032;5.298;2022-10-31T16:18:30;16.40;99.90
20915;DHT22;10617;52.032;5.298;2022-10-31T16:22:36;16.30;99.90
20915;DHT22;10617;52.032;5.298;2022-10-31T16:26:39;16.30;99.90
20915;DHT22;10617;52.032;5.298;2022-10-31T16:30:42;16.30;99.90
20915;DHT22;10617;52.032;5.298;2022-10-31T16:34:56;16.20;99.90
20915;DHT22;10617;52.032;5.298;2022-10-31T16:38:58;16.10;99.90
20915;DHT22;10617;52.032;5.298;2022-10-31T16:43:00;16.10;99.90
20915;DHT22;10617;52.032;5.298;2022-10-31T16:57:06;16.00;99.90
20915;DHT22;10617;52.032;5.298;2022-10-31T17:16:18;15.90;99.90
20915;DHT22;10617;52.032;5.298;2022-10-31T17:20:27;15.90;99.90
20915;DHT22;10617;52.032;5.298;2022-10-31T17:24:30;15.90;99.90
20915;DHT22;10617;52.032;5.298;2022-10-31T17:28:31;15.80;99.90
20915;DHT22;10617;52.032;5.298;2022-10-31T17:32:33;15.80;99.90
20915;DHT22;10617;52.032;5.298;2022-10-31T17:36:35;15.80;99.90
20915;DHT22;10617;52.032;5.298;2022-10-31T17:40:37;15.80;99.90
20915;DHT22;10617;52.032;5.298;2022-10-31T17:44:39;15.70;99.90
20915;DHT22;10617;52.032;5.298;2022-10-31T17:48:41;15.70;99.90
20915;DHT22;10617;52.032;5.298;2022-10-31T17:52:43;15.60;99.90
20915;DHT22;10617;52.032;5.298;2022-10-31T17:56:44;15.60;99.90
20915;DHT22;10617;52.032;5.298;2022-10-31T18:00:46;15.50;99.90
20915;DHT22;10617;52.032;5.298;2022-10-31T18:04:50;15.50;99.90
20915;DHT22;10617;52.032;5.298;2022-10-31T18:08:52;15.50;99.90
20915;DHT22;10617;52.032;5.298;2022-10-31T18:12:56;15.50;99.90
20915;DHT22;10617;52.032;5.298;2022-10-31T18:16:58;15.50;99.90
20915;DHT22;10617;52.032;5.298;2022-10-31T18:20:59;15.50;99.90
20915;DHT22;10617;52.032;5.298;2022-10-31T18:25:01;15.50;99.90
20915;DHT22;10617;52.032;5.298;2022-10-31T18:29:03;15.50;99.90
20915;DHT22;10617;52.032;5.298;2022-10-31T18:33:05;15.50;99.90
20915;DHT22;10617;52.032;5.298;2022-10-31T18:37:06;15.50;99.90
20915;DHT22;10617;52.032;5.298;2022-10-31T18:41:08;15.50;99.90
20915;DHT22;10617;52.032;5.298;2022-10-31T18:45:09;15.50;99.90
20915;DHT22;10617;52.032;5.298;2022-10-31T18:49:17;15.50;99.90
20915;DHT22;10617;52.032;5.298;2022-10-31T18:53:23;15.40;99.90
20915;DHT22;10617;52.032;5.298;2022-10-31T18:57:25;15.40;99.90
20915;DHT22;10617;52.032;5.298;2022-10-31T19:01:27;15.40;99.90
20915;DHT22;10617;52.032;5.298;2022-10-31T19:05:30;15.40;99.90
20915;DHT22;10617;52.032;5.298;2022-10-31T19:09:34;15.30;99.90
20915;DHT22;10617;52.032;5.298;2022-10-31T19:13:36;15.40;99.90
20915;DHT22;10617;52.032;5.298;2022-10-31T19:17:38;15.30;99.90
20915;DHT22;10617;52.032;5.298;2022-10-31T19:21:40;15.30;99.90
20915;DHT22;10617;52.032;5.298;2022-10-31T19:25:41;15.30;99.90
20915;DHT22;10617;52.032;5.298;2022-10-31T19:29:48;15.30;99.90
20915;DHT22;10617;52.032;5.298;2022-10-31T19:33:49;15.40;99.90
20915;DHT22;10617;52.032;5.298;2022-10-31T19:37:51;15.40;99.90
20915;DHT22;10617;52.032;5.298;2022-10-31T19:41:52;15.30;99.90
20915;DHT22;10617;52.032;5.298;2022-10-31T19:46:03;15.30;99.90
20915;DHT22;10617;52.032;5.298;2022-10-31T19:50:05;15.30;99.90
20915;DHT22;10617;52.032;5.298;2022-10-31T19:54:07;15.30;99.90
20915;DHT22;10617;52.032;5.298;2022-10-31T19:58:09;15.30;99.90
20915;DHT22;10617;52.032;5.298;2022-10-31T20:02:11;15.30;99.90
20915;DHT22;10617;52.032;5.298;2022-10-31T20:10:21;15.20;99.90
20915;DHT22;10617;52.032;5.298;2022-10-31T20:14:23;15.20;99.90
20915;DHT22;10617;52.032;5.298;2022-10-31T20:18:25;15.20;99.90
20915;DHT22;10617;52.032;5.298;2022-10-31T20:22:26;15.20;99.90
20915;DHT22;10617;52.032;5.298;2022-10-31T20:26:29;15.20;99.90
20915;DHT22;10617;52.032;5.298;2022-10-31T20:30:33;15.20;99.90
20915;DHT22;10617;52.032;5.298;2022-10-31T20:34:37;15.20;99.90
20915;DHT22;10617;52.032;5.298;2022-10-31T20:38:39;15.20;99.90
20915;DHT22;10617;52.032;5.298;2022-10-31T20:42:41;15.20;99.90
20915;DHT22;10617;52.032;5.298;2022-10-31T20:46:43;15.10;99.90
20915;DHT22;10617;52.032;5.298;2022-10-31T20:50:45;15.10;99.90
20915;DHT22;10617;52.032;5.298;2022-10-31T20:54:46;15.10;99.90
20915;DHT22;10617;52.032;5.298;2022-10-31T20:58:48;15.10;99.90
20915;DHT22;10617;52.032;5.298;2022-10-31T21:02:50;15.10;99.90
20915;DHT22;10617;52.032;5.298;2022-10-31T21:06:51;15.10;99.90
20915;DHT22;10617;52.032;5.298;2022-10-31T21:10:53;15.10;99.90
20915;DHT22;10617;52.032;5.298;2022-10-31T21:14:55;15.10;99.90
20915;DHT22;10617;52.032;5.298;2022-10-31T21:18:59;15.10;99.90
20915;DHT22;10617;52.032;5.298;2022-10-31T21:23:00;15.10;99.90
20915;DHT22;10617;52.032;5.298;2022-10-31T21:27:02;15.10;99.90
20915;DHT22;10617;52.032;5.298;2022-10-31T21:31:08;15.10;99.90
20915;DHT22;10617;52.032;5.298;2022-10-31T21:35:10;15.10;99.90
20915;DHT22;10617;52.032;5.298;2022-10-31T21:39:11;15.10;99.90
20915;DHT22;10617;52.032;5.298;2022-10-31T21:43:13;15.00;99.90
20915;DHT22;10617;52.032;5.298;2022-10-31T21:47:15;15.00;99.90
20915;DHT22;10617;52.032;5.298;2022-10-31T21:51:18;15.00;99.90
20915;DHT22;10617;52.032;5.298;2022-10-31T21:55:20;15.00;99.90
20915;DHT22;10617;52.032;5.298;2022-10-31T21:59:22;15.00;99.90
20915;DHT22;10617;52.032;5.298;2022-10-31T22:03:23;15.00;99.90
20915;DHT22;10617;52.032;5.298;2022-10-31T22:07:25;15.00;99.90
20915;DHT22;10617;52.032;5.298;2022-10-31T22:11:27;15.00;99.90
20915;DHT22;10617;52.032;5.298;2022-10-31T22:15:28;15.00;99.90
20915;DHT22;10617;52.032;5.298;2022-10-31T22:19:30;15.00;99.90
20915;DHT22;10617;52.032;5.298;2022-10-31T22:23:32;15.00;99.90
20915;DHT22;10617;52.032;5.298;2022-10-31T22:27:34;15.00;99.90
20915;DHT22;10617;52.032;5.298;2022-10-31T22:31:38;15.00;99.90
20915;DHT22;10617;52.032;5.298;2022-10-31T22:35:40;15.00;99.90
20915;DHT22;10617;52.032;5.298;2022-10-31T22:39:42;15.00;99.90
20915;DHT22;10617;52.032;5.298;2022-10-31T22:43:44;15.10;99.90
20915;DHT22;10617;52.032;5.298;2022-10-31T22:47:45;15.10;99.90
20915;DHT22;10617;52.032;5.298;2022-10-31T22:51:48;15.20;99.90
20915;DHT22;10617;52.032;5.298;2022-10-31T22:55:50;15.20;99.90
20915;DHT22;10617;52.032;5.298;2022-10-31T22:59:51;15.20;99.90
20915;DHT22;10617;52.032;5.298;2022-10-31T23:03:53;15.30;99.90
20915;DHT22;10617;52.032;5.298;2022-10-31T23:07:55;15.40;99.90
20915;DHT22;10617;52.032;5.298;2022-10-31T23:11:56;15.40;99.90
20915;DHT22;10617;52.032;5.298;2022-10-31T23:16:18;15.30;99.90
20915;DHT22;10617;52.032;5.298;2022-10-31T23:20:19;15.30;99.90
20915;DHT22;10617;52.032;5.298;2022-10-31T23:28:29;15.30;99.90
20915;DHT22;10617;52.032;5.298;2022-10-31T23:32:32;15.30;99.90
20915;DHT22;10617;52.032;5.298;2022-10-31T23:36:35;15.30;99.90
20915;DHT22;10617;52.032;5.298;2022-10-31T23:40:37;15.30;99.90
20915;DHT22;10617;52.032;5.298;2022-10-31T23:44:41;15.30;99.90
20915;DHT22;10617;52.032;5.298;2022-10-31T23:48:42;15.30;99.90
20915;DHT22;10617;52.032;5.298;2022-10-31T23:52:48;15.30;99.90
20915;DHT22;10617;52.032;5.298;2022-10-31T23:56:50;15.30;99.90
